createdAt,value
2022-12-18T00:01:28.630Z,16.90
2022-12-18T00:03:58.120Z,16.80
2022-12-18T00:06:27.618Z,17.23
2022-12-18T00:08:57.763Z,21.95
2022-12-18T00:11:29.246Z,15.43
2022-12-18T00:13:59.269Z,20.77
2022-12-18T00:16:28.187Z,15.50
2022-12-18T00:18:58.774Z,15.15
2022-12-18T00:21:26.541Z,18.83
2022-12-18T00:23:54.638Z,18.30
2022-12-18T00:26:25.147Z,18.23
2022-12-18T00:29:01.100Z,27.08
2022-12-18T00:31:31.911Z,20.63
2022-12-18T00:34:01.284Z,10.18
2022-12-18T00:36:31.131Z,18.42
2022-12-18T00:39:00.302Z,18.98
2022-12-18T00:41:46.847Z,16.42
2022-12-18T00:44:18.248Z,13.45
2022-12-18T00:46:48.131Z,19.08
2022-12-18T00:49:16.165Z,15.20
2022-12-18T00:51:43.993Z,15.25
2022-12-18T00:54:12.886Z,20.08
2022-12-18T00:56:48.255Z,17.00
2022-12-18T00:59:18.743Z,19.58
2022-12-18T01:01:47.048Z,19.15
2022-12-18T01:04:15.528Z,18.77
2022-12-18T01:06:46.698Z,19.25
2022-12-18T01:09:14.470Z,16.23
2022-12-18T01:11:42.382Z,18.92
2022-12-18T01:14:11.919Z,22.35
2022-12-18T01:16:41.117Z,17.30
2022-12-18T01:19:09.004Z,21.23
2022-12-18T01:21:36.787Z,18.65
2022-12-18T01:24:06.223Z,25.08
2022-12-18T01:26:34.985Z,20.63
2022-12-18T01:29:02.692Z,18.42
2022-12-18T01:31:33.318Z,13.32
2022-12-18T01:34:06.026Z,18.30
2022-12-18T01:36:37.522Z,19.70
2022-12-18T01:39:07.414Z,18.60
2022-12-18T01:41:50.726Z,21.23
2022-12-18T01:45:04.255Z,16.20
2022-12-18T01:47:40.047Z,11.20
2022-12-18T01:50:13.524Z,11.10
2022-12-18T01:52:44.686Z,18.00
2022-12-18T01:55:14.410Z,9.98
2022-12-18T01:57:43.309Z,18.48
2022-12-18T02:00:15.864Z,21.17
2022-12-18T02:02:46.403Z,17.48
2022-12-18T02:05:18.575Z,15.95
2022-12-18T02:07:58.242Z,19.27
2022-12-18T02:10:32.010Z,22.70
2022-12-18T02:13:13.655Z,18.13
2022-12-18T02:15:45.942Z,16.20
2022-12-18T02:18:20.686Z,22.25
2022-12-18T02:20:56.202Z,14.63
2022-12-18T02:23:41.932Z,16.50
2022-12-18T02:26:18.618Z,18.52
2022-12-18T02:28:50.144Z,11.75
2022-12-18T02:31:23.283Z,18.80
2022-12-18T02:33:52.237Z,18.42
2022-12-18T02:36:23.843Z,10.75
2022-12-18T02:38:53.865Z,14.73
2022-12-18T02:41:24.711Z,11.15
2022-12-18T02:43:58.037Z,14.68
2022-12-18T02:46:37.020Z,17.40
2022-12-18T02:49:27.983Z,16.05
2022-12-18T02:52:03.826Z,8.32
2022-12-18T02:54:54.412Z,19.52
2022-12-18T02:57:30.867Z,14.27
2022-12-18T03:00:07.185Z,9.63
2022-12-18T03:02:40.051Z,15.35
2022-12-18T03:05:16.012Z,7.43
2022-12-18T03:07:49.319Z,15.02
2022-12-18T03:10:25.790Z,18.42
2022-12-18T03:12:59.853Z,18.83
2022-12-18T03:15:31.671Z,9.52
2022-12-18T03:18:12.864Z,13.75
2022-12-18T03:20:44.277Z,12.43
2022-12-18T03:23:17.740Z,13.05
2022-12-18T03:25:52.383Z,15.38
2022-12-18T03:28:24.694Z,20.30
2022-12-18T03:31:03.414Z,12.77
2022-12-18T03:33:36.914Z,15.07
2022-12-18T03:36:05.612Z,13.40
2022-12-18T03:38:34.636Z,12.10
2022-12-18T03:41:09.150Z,13.25
2022-12-18T03:43:53.080Z,16.27
2022-12-18T03:46:30.309Z,13.13
2022-12-18T03:49:06.338Z,21.88
2022-12-18T03:51:39.992Z,9.85
2022-12-18T03:54:10.723Z,6.65
2022-12-18T03:59:17.436Z,9.23
2022-12-18T04:01:49.561Z,15.40
2022-12-18T04:04:20.748Z,11.35
2022-12-18T04:06:51.591Z,11.93
2022-12-18T04:09:21.218Z,7.85
2022-12-18T04:11:50.478Z,7.80
2022-12-18T04:14:19.578Z,16.67
2022-12-18T04:16:51.683Z,14.43
2022-12-18T04:19:24.078Z,15.00
2022-12-18T04:21:53.743Z,12.85
2022-12-18T04:24:21.894Z,15.43
2022-12-18T04:27:01.326Z,19.05
2022-12-18T04:29:35.733Z,12.98
2022-12-18T04:32:03.510Z,12.05
2022-12-18T04:34:33.037Z,19.55
2022-12-18T04:37:01.206Z,7.30
2022-12-18T04:39:29.226Z,14.35
2022-12-18T04:42:05.733Z,16.08
2022-12-18T04:44:35.186Z,13.05
2022-12-18T04:47:03.030Z,15.18
2022-12-18T04:49:30.740Z,11.40
2022-12-18T04:51:58.537Z,17.88
2022-12-18T04:54:26.468Z,6.78
2022-12-18T04:56:54.256Z,20.52
2022-12-18T04:59:22.919Z,12.30
2022-12-18T05:01:52.939Z,4.97
2022-12-18T05:04:21.753Z,9.13
2022-12-18T05:06:49.466Z,11.65
2022-12-18T05:09:17.195Z,11.40
2022-12-18T05:11:45.307Z,18.05
2022-12-18T05:14:14.204Z,14.10
2022-12-18T05:16:41.961Z,11.00
2022-12-18T05:19:11.479Z,18.42
2022-12-18T05:21:39.520Z,18.60
2022-12-18T05:24:07.646Z,9.63
2022-12-18T05:26:35.352Z,18.23
2022-12-18T05:29:03.063Z,18.15
2022-12-18T05:31:35.924Z,18.42
2022-12-18T05:34:06.841Z,10.60
2022-12-18T05:36:35.957Z,13.40
2022-12-18T05:39:03.729Z,16.05
2022-12-18T05:41:32.284Z,12.43
2022-12-18T05:44:00.261Z,13.27
2022-12-18T05:46:28.839Z,16.38
2022-12-18T05:48:56.985Z,17.27
2022-12-18T05:51:24.708Z,15.82
2022-12-18T05:53:53.860Z,10.13
2022-12-18T05:56:23.676Z,13.23
2022-12-18T05:58:53.760Z,14.85
2022-12-18T06:01:24.023Z,11.40
2022-12-18T06:03:51.853Z,15.13
2022-12-18T06:06:23.169Z,15.25
2022-12-18T06:08:52.929Z,9.15
2022-12-18T06:11:22.927Z,13.50
2022-12-18T06:13:56.324Z,20.13
2022-12-18T06:16:26.465Z,20.42
2022-12-18T06:18:54.291Z,18.85
2022-12-18T06:21:22.639Z,21.23
2022-12-18T06:23:50.416Z,15.82
2022-12-18T06:26:24.641Z,10.75
2022-12-18T06:28:55.452Z,21.80
2022-12-18T06:31:23.815Z,9.95
2022-12-18T06:33:51.698Z,22.10
2022-12-18T06:36:20.589Z,23.65
2022-12-18T06:38:48.507Z,22.15
2022-12-18T06:41:18.269Z,18.13
2022-12-18T06:43:47.627Z,15.07
2022-12-18T06:46:15.559Z,22.38
2022-12-18T06:48:43.623Z,21.48
2022-12-18T06:51:11.340Z,22.00
2022-12-18T06:53:40.009Z,23.13
2022-12-18T06:56:10.892Z,21.17
2022-12-18T06:58:39.179Z,19.95
2022-12-18T07:01:10.611Z,24.75
2022-12-18T07:03:39.656Z,26.42
2022-12-18T07:06:08.216Z,25.80
2022-12-18T07:08:36.473Z,21.55
2022-12-18T07:11:06.502Z,21.15
2022-12-18T07:13:34.222Z,24.48
2022-12-18T07:16:15.955Z,22.60
2022-12-18T07:18:45.420Z,23.25
2022-12-18T07:21:14.925Z,22.35
2022-12-18T07:23:42.921Z,22.30
2022-12-18T07:26:13.118Z,23.98
2022-12-18T07:28:42.527Z,21.15
2022-12-18T07:31:13.689Z,21.60
2022-12-18T07:33:41.970Z,22.48
2022-12-18T07:36:12.528Z,26.25
2022-12-18T07:38:41.031Z,41.97
2022-12-18T07:41:11.734Z,36.40
2022-12-18T07:43:40.731Z,8.48
2022-12-18T07:46:13.187Z,22.58
2022-12-18T07:48:41.615Z,14.82
2022-12-18T07:51:09.814Z,8.30
2022-12-18T07:53:38.948Z,13.13
2022-12-18T07:58:57.233Z,16.30
2022-12-18T08:01:26.817Z,15.20
2022-12-18T08:03:54.813Z,8.50
2022-12-18T08:06:23.788Z,16.35
2022-12-18T08:08:53.757Z,15.40
2022-12-18T08:11:21.997Z,19.02
2022-12-18T08:13:49.808Z,19.25
2022-12-18T08:16:18.005Z,9.65
2022-12-18T08:18:47.328Z,16.83
2022-12-18T08:21:17.761Z,16.02
2022-12-18T08:23:46.267Z,12.57
2022-12-18T08:26:14.724Z,7.13
2022-12-18T08:28:43.280Z,13.55
2022-12-18T08:31:11.723Z,16.55
2022-12-18T08:33:41.047Z,17.20
2022-12-18T08:36:11.872Z,14.52
2022-12-18T08:38:39.765Z,12.95
2022-12-18T08:41:09.343Z,11.05
2022-12-18T08:43:54.858Z,23.70
2022-12-18T08:48:53.079Z,11.13
2022-12-18T08:51:22.575Z,9.57
2022-12-18T08:53:50.328Z,25.30
2022-12-18T08:56:18.690Z,23.65
2022-12-18T08:58:46.631Z,17.42
2022-12-18T09:01:15.172Z,16.33
2022-12-18T09:03:43.411Z,23.40
2022-12-18T09:06:16.621Z,23.52
2022-12-18T09:08:46.458Z,19.73
2022-12-18T09:11:16.734Z,21.70
2022-12-18T09:13:44.418Z,17.35
2022-12-18T09:16:12.108Z,17.80
2022-12-18T09:18:40.071Z,19.63
2022-12-18T09:21:12.731Z,11.63
2022-12-18T09:23:40.809Z,16.80
2022-12-18T09:26:09.967Z,17.98
2022-12-18T09:28:38.347Z,20.58
2022-12-18T09:31:09.420Z,15.65
2022-12-18T09:33:37.688Z,17.17
2022-12-18T09:36:08.192Z,13.13
2022-12-18T09:38:36.866Z,20.40
2022-12-18T09:41:09.000Z,14.82
2022-12-18T09:43:45.244Z,19.75
2022-12-18T09:46:19.055Z,21.20
2022-12-18T09:48:51.359Z,18.23
2022-12-18T09:51:25.441Z,22.65
2022-12-18T09:53:59.465Z,11.00
2022-12-18T09:56:31.019Z,13.45
2022-12-18T09:59:02.061Z,12.48
2022-12-18T10:01:41.533Z,13.43
2022-12-18T10:04:11.865Z,15.18
2022-12-18T10:06:48.133Z,14.95
2022-12-18T10:09:27.571Z,13.30
2022-12-18T10:12:05.446Z,13.50
2022-12-18T10:14:45.260Z,16.27
2022-12-18T10:17:25.221Z,11.82
2022-12-18T10:19:58.277Z,10.10
2022-12-18T10:22:42.650Z,19.77
2022-12-18T10:25:21.336Z,12.55
2022-12-18T10:27:50.416Z,18.35
2022-12-18T10:30:22.243Z,17.55
2022-12-18T10:32:50.141Z,17.08
2022-12-18T10:35:21.804Z,19.10
2022-12-18T10:38:03.872Z,11.85
2022-12-18T10:40:32.147Z,14.93
2022-12-18T10:43:12.641Z,10.32
2022-12-18T10:45:41.848Z,14.38
2022-12-18T10:48:21.203Z,15.65
2022-12-18T10:53:43.942Z,17.35
2022-12-18T10:56:12.723Z,11.02
2022-12-18T10:58:41.465Z,12.52
2022-12-18T11:01:13.693Z,12.45
2022-12-18T11:03:43.519Z,14.82
2022-12-18T11:06:13.448Z,15.68
2022-12-18T11:08:43.119Z,15.18
2022-12-18T11:11:21.637Z,16.13
2022-12-18T11:14:00.530Z,18.23
2022-12-18T11:16:31.681Z,10.95
2022-12-18T11:19:17.134Z,13.02
2022-12-18T11:21:45.043Z,15.00
2022-12-18T11:24:22.289Z,14.10
2022-12-18T11:26:53.750Z,9.63
2022-12-18T11:29:29.282Z,15.02
2022-12-18T11:32:25.771Z,10.57
2022-12-18T11:35:00.024Z,15.48
2022-12-18T11:37:29.670Z,22.65
2022-12-18T11:40:02.019Z,13.63
2022-12-18T11:42:37.847Z,16.95
2022-12-18T11:48:00.774Z,10.82
2022-12-18T11:50:33.476Z,12.65
2022-12-18T11:53:05.653Z,15.55
2022-12-18T11:55:41.849Z,11.10
2022-12-18T11:58:18.988Z,14.80
2022-12-18T12:00:51.491Z,15.98
2022-12-18T12:03:42.096Z,14.05
2022-12-18T12:06:16.170Z,16.60
2022-12-18T12:09:03.249Z,9.23
2022-12-18T12:11:44.194Z,17.35
2022-12-18T12:14:25.405Z,18.40
2022-12-18T12:16:59.391Z,14.00
2022-12-18T12:19:40.280Z,10.00
2022-12-18T12:22:15.875Z,13.75
2022-12-18T12:25:01.478Z,15.27
2022-12-18T12:30:08.525Z,12.65
2022-12-18T12:32:52.763Z,10.77
2022-12-18T12:35:32.386Z,15.18
2022-12-18T12:38:10.165Z,14.43
2022-12-18T12:40:54.021Z,20.90
2022-12-18T12:43:32.138Z,15.27
2022-12-18T12:46:08.393Z,11.55
2022-12-18T12:48:46.129Z,12.98
2022-12-18T12:51:19.764Z,19.65
2022-12-18T12:53:49.714Z,15.70
2022-12-18T12:56:19.871Z,17.63
2022-12-18T12:58:57.673Z,17.45
2022-12-18T13:01:35.184Z,15.98
2022-12-18T13:04:14.784Z,17.35
2022-12-18T13:06:52.299Z,18.30
2022-12-18T13:09:20.043Z,23.52
2022-12-18T13:12:07.596Z,21.08
2022-12-18T13:14:37.738Z,22.63
2022-12-18T13:17:31.771Z,25.92
2022-12-18T13:20:12.002Z,17.83
2022-12-18T13:22:44.942Z,20.92
2022-12-18T13:25:37.632Z,24.27
2022-12-18T13:28:10.338Z,32.47
2022-12-18T13:31:02.808Z,18.45
2022-12-18T13:36:39.888Z,14.73
2022-12-18T13:39:34.340Z,24.75
2022-12-18T13:42:58.772Z,18.75
2022-12-18T13:45:43.357Z,22.23
2022-12-18T13:48:21.187Z,17.08
2022-12-18T13:50:55.817Z,17.50
2022-12-18T13:53:28.439Z,21.20
2022-12-18T13:55:58.608Z,18.23
2022-12-18T13:58:26.368Z,16.50
2022-12-18T14:00:54.186Z,20.77
2022-12-18T14:03:27.061Z,25.55
2022-12-18T14:06:05.577Z,15.77
2022-12-18T14:08:41.338Z,25.42
2022-12-18T14:11:22.364Z,23.45
2022-12-18T14:13:51.186Z,26.00
2022-12-18T14:16:19.731Z,22.33
2022-12-18T14:18:51.160Z,25.73
2022-12-18T14:21:23.118Z,19.58
2022-12-18T14:23:51.269Z,25.27
2022-12-18T14:26:29.356Z,22.13
2022-12-18T14:28:57.537Z,21.63
2022-12-18T14:31:27.326Z,16.08
2022-12-18T14:33:55.525Z,21.15
2022-12-18T14:36:24.993Z,20.42
2022-12-18T14:38:54.610Z,22.80
2022-12-18T14:41:24.835Z,17.35
2022-12-18T14:43:54.711Z,15.93
2022-12-18T14:46:34.633Z,16.35
2022-12-18T14:49:05.556Z,23.13
2022-12-18T14:51:35.293Z,18.38
2022-12-18T14:54:05.280Z,14.57
2022-12-18T14:56:37.191Z,22.88
2022-12-18T14:59:06.868Z,21.42
2022-12-18T15:01:38.919Z,22.73
2022-12-18T15:04:25.046Z,19.83
2022-12-18T15:07:05.852Z,18.45
2022-12-18T15:09:33.734Z,22.42
2022-12-18T15:12:03.574Z,19.42
2022-12-18T15:14:37.189Z,15.10
2022-12-18T15:17:08.214Z,23.15
2022-12-18T15:19:40.839Z,11.70
2022-12-18T15:22:21.437Z,18.25
2022-12-18T15:24:50.769Z,16.02
2022-12-18T15:27:32.051Z,24.58
2022-12-18T15:30:19.896Z,19.30
2022-12-18T15:32:48.574Z,17.70
2022-12-18T15:35:19.431Z,11.10
2022-12-18T15:37:47.662Z,25.13
2022-12-18T15:40:16.231Z,19.70
2022-12-18T15:43:05.071Z,16.92
2022-12-18T15:45:32.910Z,23.08
2022-12-18T15:48:08.505Z,14.20
2022-12-18T15:50:36.596Z,18.33
2022-12-18T15:53:04.596Z,21.85
2022-12-18T15:55:59.313Z,25.63
2022-12-18T15:58:29.997Z,16.40
2022-12-18T16:01:00.499Z,16.17
2022-12-18T16:03:28.447Z,13.75
2022-12-18T16:05:56.536Z,22.73
2022-12-18T16:08:25.618Z,18.15
2022-12-18T16:10:53.333Z,19.98
2022-12-18T16:13:22.303Z,19.00
2022-12-18T16:15:51.784Z,32.83
2022-12-18T16:18:19.572Z,22.80
2022-12-18T16:20:47.386Z,21.02
2022-12-18T16:23:15.205Z,17.23
2022-12-18T16:25:42.937Z,22.85
2022-12-18T16:28:10.972Z,17.60
2022-12-18T16:30:38.905Z,18.55
2022-12-18T16:33:08.028Z,17.17
2022-12-18T16:35:37.986Z,25.00
2022-12-18T16:38:05.775Z,21.27
2022-12-18T16:40:34.236Z,18.25
2022-12-18T16:43:01.885Z,14.10
2022-12-18T16:45:33.947Z,25.63
2022-12-18T16:48:01.914Z,23.67
2022-12-18T16:50:32.203Z,19.67
2022-12-18T16:53:00.470Z,15.90
2022-12-18T16:55:28.756Z,17.48
2022-12-18T16:57:56.493Z,19.63
2022-12-18T17:00:24.190Z,22.08
2022-12-18T17:02:52.615Z,22.33
2022-12-18T17:05:21.495Z,19.58
2022-12-18T17:07:50.958Z,24.80
2022-12-18T17:10:18.889Z,22.58
2022-12-18T17:12:47.253Z,24.80
2022-12-18T17:15:15.253Z,19.85
2022-12-18T17:17:44.625Z,20.38
2022-12-18T17:20:13.025Z,22.05
2022-12-18T17:22:41.207Z,27.45
2022-12-18T17:25:10.958Z,24.77
2022-12-18T17:27:39.071Z,14.48
2022-12-18T17:30:09.890Z,17.75
2022-12-18T17:32:38.658Z,15.32
2022-12-18T17:35:08.065Z,23.23
2022-12-18T17:37:36.840Z,24.13
2022-12-18T17:40:11.396Z,20.15
2022-12-18T17:42:39.555Z,24.17
2022-12-18T17:45:08.440Z,24.33
2022-12-18T17:47:36.754Z,23.98
2022-12-18T17:50:05.401Z,23.13
2022-12-18T17:52:36.564Z,18.73
2022-12-18T17:55:05.835Z,22.40
2022-12-18T17:57:35.072Z,20.67
2022-12-18T18:00:02.912Z,20.92
2022-12-18T18:02:43.823Z,20.42
2022-12-18T18:05:13.420Z,22.35
2022-12-18T18:07:43.055Z,20.25
2022-12-18T18:10:11.351Z,20.73
2022-12-18T18:12:57.698Z,25.65
2022-12-18T18:15:25.456Z,11.20
2022-12-18T18:17:53.234Z,18.85
2022-12-18T18:20:22.911Z,27.08
2022-12-18T18:22:50.818Z,27.70
2022-12-18T18:25:18.718Z,19.42
2022-12-18T18:27:48.647Z,17.70
2022-12-18T18:30:16.733Z,23.80
2022-12-18T18:32:44.483Z,22.48
2022-12-18T18:35:30.691Z,26.45
2022-12-18T18:38:00.309Z,21.92
2022-12-18T18:40:28.749Z,17.98
2022-12-18T18:42:58.390Z,31.42
2022-12-18T18:45:26.189Z,24.98
2022-12-18T18:47:53.992Z,25.88
2022-12-18T18:50:21.782Z,23.90
2022-12-18T18:52:49.664Z,22.90
2022-12-18T18:55:25.337Z,25.25
2022-12-18T18:57:53.630Z,31.88
2022-12-18T19:00:22.793Z,14.93
2022-12-18T19:02:52.156Z,39.97
2022-12-18T19:05:22.893Z,33.17
2022-12-18T19:07:50.560Z,19.67
2022-12-18T19:10:18.336Z,20.85
2022-12-18T19:13:03.547Z,33.85
2022-12-18T19:15:33.031Z,36.88
2022-12-18T19:18:00.935Z,38.28
2022-12-18T19:20:28.826Z,28.75
2022-12-18T19:22:57.116Z,35.00
2022-12-18T19:25:40.012Z,25.02
2022-12-18T19:28:16.021Z,16.15
2022-12-18T19:30:53.562Z,26.00
2022-12-18T19:33:42.305Z,28.02
2022-12-18T19:36:12.865Z,25.52
2022-12-18T19:38:41.544Z,25.50
2022-12-18T19:41:14.212Z,22.38
2022-12-18T19:43:42.803Z,20.55
2022-12-18T19:46:15.440Z,20.05
2022-12-18T19:48:44.335Z,27.58
2022-12-18T19:51:15.797Z,24.40
2022-12-18T19:53:43.948Z,30.27
2022-12-18T19:56:14.211Z,22.77
2022-12-18T19:58:42.440Z,23.02
2022-12-18T20:01:16.673Z,29.00
2022-12-18T20:03:52.384Z,30.23
2022-12-18T20:06:26.374Z,31.88
2022-12-18T20:08:57.672Z,20.20
2022-12-18T20:11:28.140Z,20.30
2022-12-18T20:13:55.869Z,28.80
2022-12-18T20:16:25.135Z,22.30
2022-12-18T20:18:56.393Z,21.35
2022-12-18T20:21:25.175Z,31.83
2022-12-18T20:23:54.750Z,28.70
2022-12-18T20:26:22.719Z,19.25
2022-12-18T20:28:50.490Z,27.25
2022-12-18T20:31:18.223Z,24.00
2022-12-18T20:33:48.679Z,34.00
2022-12-18T20:36:28.196Z,23.65
2022-12-18T20:38:59.274Z,21.85
2022-12-18T20:41:38.549Z,35.22
2022-12-18T20:44:13.728Z,38.80
2022-12-18T20:46:50.411Z,36.47
2022-12-18T20:49:19.615Z,18.00
2022-12-18T20:51:47.371Z,23.75
2022-12-18T20:54:15.066Z,29.23
2022-12-18T20:56:42.764Z,39.25
2022-12-18T20:59:11.329Z,32.83
2022-12-18T21:01:40.112Z,29.85
2022-12-18T21:04:15.166Z,29.20
2022-12-18T21:06:50.921Z,27.70
2022-12-18T21:09:19.436Z,36.70
2022-12-18T21:12:05.730Z,22.30
2022-12-18T21:14:33.626Z,35.78
2022-12-18T21:17:01.921Z,32.30
2022-12-18T21:19:30.393Z,40.58
2022-12-18T21:22:00.142Z,39.33
2022-12-18T21:24:32.010Z,13.55
2022-12-18T21:27:03.610Z,35.05
2022-12-18T21:29:31.458Z,43.80
2022-12-18T21:31:59.244Z,38.45
2022-12-18T21:34:28.562Z,37.30
2022-12-18T21:36:57.719Z,38.70
2022-12-18T21:39:27.899Z,37.83
2022-12-18T21:42:13.451Z,35.05
2022-12-18T21:44:42.598Z,25.10
2022-12-18T21:47:21.505Z,35.47
2022-12-18T21:49:51.835Z,35.33
2022-12-18T21:52:20.342Z,42.05
2022-12-18T21:54:53.692Z,34.78
2022-12-18T21:57:21.372Z,19.83
2022-12-18T21:59:50.458Z,23.25
2022-12-18T22:02:21.164Z,31.98
2022-12-18T22:04:49.322Z,27.60
2022-12-18T22:07:17.868Z,32.15
2022-12-18T22:09:46.058Z,24.35
2022-12-18T22:12:35.026Z,42.22
2022-12-18T22:15:04.979Z,38.72
2022-12-18T22:17:33.263Z,24.85
2022-12-18T22:20:00.959Z,42.88
2022-12-18T22:22:28.942Z,26.40
2022-12-18T22:24:56.883Z,30.85
2022-12-18T22:27:26.014Z,33.58
2022-12-18T22:30:04.854Z,41.72
2022-12-18T22:32:33.768Z,32.60
2022-12-18T22:35:07.215Z,31.88
2022-12-18T22:37:37.176Z,33.88
2022-12-18T22:40:06.252Z,37.30
2022-12-18T22:42:36.965Z,28.02
2022-12-18T22:45:05.323Z,33.70
2022-12-18T22:47:33.063Z,32.05
2022-12-18T22:50:00.781Z,34.88
2022-12-18T22:52:28.500Z,31.10
2022-12-18T22:54:56.387Z,31.02
2022-12-18T22:57:25.277Z,35.70
2022-12-18T22:59:54.315Z,35.47
2022-12-18T23:02:22.241Z,42.22
2022-12-18T23:04:50.118Z,37.30
2022-12-18T23:07:18.683Z,37.78
2022-12-18T23:09:46.828Z,38.33
2022-12-18T23:12:19.756Z,36.13
2022-12-18T23:14:47.846Z,28.33
2022-12-18T23:17:17.025Z,32.38
2022-12-18T23:19:49.016Z,38.28
2022-12-18T23:22:17.459Z,38.97
2022-12-18T23:24:45.432Z,40.00
2022-12-18T23:27:13.290Z,18.30
2022-12-18T23:29:41.585Z,34.30
2022-12-18T23:32:09.558Z,28.58
2022-12-18T23:34:38.578Z,36.33
2022-12-18T23:37:06.268Z,36.35
2022-12-18T23:39:36.923Z,18.98
2022-12-18T23:42:04.828Z,27.52
2022-12-18T23:44:32.490Z,35.17
2022-12-18T23:47:00.242Z,39.25
2022-12-18T23:49:28.450Z,30.88
2022-12-18T23:51:57.559Z,25.40
2022-12-18T23:54:33.451Z,18.33
2022-12-18T23:57:02.069Z,41.25
2022-12-18T23:59:29.761Z,32.10
